Keret — UAEH — position and weather

sailwx.info

Track history (hours):
 
Tides and Currents Weather Stations Pressure Air Temp Water Temp Dewpoint Dewpoint Depression Visibility Wind Speed Wind Dir Waves Ship Positions

Keret

Last reported at 2014-Jul-28 17:22 UTC. Time now 2014-Jul-28 18:34 UTC.
Position N 59°56' E 030°17'.

Length 82 m; draft 2.9 m.

Type: Cargo ship. MMSI: 273333000.

Date/timePositionNaut miles runAvg speedWind from/ knotsBaromVisibWave heightAir tempDewpointWater temp
2014-Jul-28 17:22N 59°56' E 030°17'0 0.0
2014-Jul-28 16:15N 59°56' E 030°17'0 0.0
2014-Jul-28 15:33N 59°56' E 030°17'0 0.0
2014-Jul-28 14:33N 59°56' E 030°17'66 6.6
2014-Jul-28 04:32N 60°35' E 028°30'12 0.3
2014-Jul-26 15:25N 60°24' E 028°20'64 8.8
2014-Jul-26 08:08N 59°54' E 030°13'3 4.7
2014-Jul-26 07:33N 59°56' E 030°17'0 0.0
2014-Jul-26 06:33N 59°56' E 030°17'0 0.0
2014-Jul-26 05:33N 59°56' E 030°17'0 0.0
2014-Jul-26 04:33N 59°56' E 030°17'0 0.0
2014-Jul-26 03:33N 59°56' E 030°17'0 0.0
2014-Jul-26 02:33N 59°56' E 030°17'0 0.0
2014-Jul-26 01:33N 59°56' E 030°17'0 0.0
2014-Jul-26 00:33N 59°56' E 030°17'  
2014-Jul-20 21:32N 59°56' E 030°17'0 0.2
2014-Jul-20 20:33N 59°56' E 030°17'0 0.0
2014-Jul-20 19:33N 59°56' E 030°17'0 0.0
2014-Jul-20 18:33N 59°56' E 030°17'0 0.0
2014-Jul-20 17:33N 59°56' E 030°17'0 0.0
2014-Jul-20 16:33N 59°56' E 030°17'2 2.4
2014-Jul-20 15:33N 59°55' E 030°12'  
Track history (hours):
 
Tides and Currents Weather Stations Pressure Air Temp Water Temp Dewpoint Dewpoint Depression Visibility Wind Speed Wind Dir Waves Ship Positions

Keret

Last reported at 2014-Jul-28 17:22 UTC. Time now 2014-Jul-28 18:34 UTC.
Position N 59°56' E 030°17'.

Length 82 m; draft 2.9 m.

Type: Cargo ship. MMSI: 273333000.

Date/timePositionNaut miles runAvg speedWind from/ knotsBaromVisibWave heightAir tempDewpointWater temp
2014-Jul-28 17:22N 59°56' E 030°17'0 0.0
2014-Jul-28 16:15N 59°56' E 030°17'0 0.0
2014-Jul-28 15:33N 59°56' E 030°17'0 0.0
2014-Jul-28 14:33N 59°56' E 030°17'66 6.6
2014-Jul-28 04:32N 60°35' E 028°30'12 0.3
2014-Jul-26 15:25N 60°24' E 028°20'64 8.8
2014-Jul-26 08:08N 59°54' E 030°13'3 4.7
2014-Jul-26 07:33N 59°56' E 030°17'0 0.0
2014-Jul-26 06:33N 59°56' E 030°17'0 0.0
2014-Jul-26 05:33N 59°56' E 030°17'0 0.0
2014-Jul-26 04:33N 59°56' E 030°17'0 0.0
2014-Jul-26 03:33N 59°56' E 030°17'0 0.0
2014-Jul-26 02:33N 59°56' E 030°17'0 0.0
2014-Jul-26 01:33N 59°56' E 030°17'0 0.0
2014-Jul-26 00:33N 59°56' E 030°17'  
2014-Jul-20 21:32N 59°56' E 030°17'0 0.2
2014-Jul-20 20:33N 59°56' E 030°17'0 0.0
2014-Jul-20 19:33N 59°56' E 030°17'0 0.0
2014-Jul-20 18:33N 59°56' E 030°17'0 0.0
2014-Jul-20 17:33N 59°56' E 030°17'0 0.0
2014-Jul-20 16:33N 59°56' E 030°17'2 2.4
2014-Jul-20 15:33N 59°55' E 030°12'  

Dump ship's entire track history